AZU2839 SBRJ-SBSP
Flight info
| Callsign | AZU2839 |
|---|---|
| Flight time | 0h 45m |
| Altitude | 30000 |
| Route | NAXOP UZ45 IBDAL |
| Aircraft | E195/M-SDE3GILORVW/S |
Departure
| Time | 2026-05-07 01:29 |
|---|---|
| Airport | Santos Dumont Airport (SBRJ) |
Arrival
| Time | 2026-05-07 02:14 |
|---|---|
| Airport | Congonhas–Deputado Freitas Nobre Airport (SBSP) |
| Time | Latitude | Longitude | Altitude | Speed | Heading |
|---|---|---|---|---|---|
| 2026-05-07 00:49 | -22.91129 | -43.16593 | 26 ft | 0 kts | 266° |
| 2026-05-07 01:13 | -22.91129 | -43.16594 | 26 ft | 0 kts | 266° |
| 2026-05-07 01:14 | -22.91128 | -43.16580 | 26 ft | 2 kts | 266° |
| 2026-05-07 01:14 | -22.91128 | -43.16564 | 26 ft | 2 kts | 282° |
| 2026-05-07 01:14 | -22.91134 | -43.16548 | 26 ft | 2 kts | 300° |
| 2026-05-07 01:15 | -22.91139 | -43.16539 | 26 ft | 2 kts | 311° |
| 2026-05-07 01:15 | -22.91155 | -43.16526 | 26 ft | 2 kts | 335° |
| 2026-05-07 01:15 | -22.91169 | -43.16521 | 26 ft | 2 kts | 351° |
| 2026-05-07 01:15 | -22.91176 | -43.16520 | 26 ft | 0 kts | 356° |
| 2026-05-07 01:18 | -22.91145 | -43.16523 | 26 ft | 6 kts | 354° |
| 2026-05-07 01:18 | -22.91089 | -43.16542 | 26 ft | 10 kts | 343° |
| 2026-05-07 01:19 | -22.90999 | -43.16553 | 26 ft | 15 kts | 356° |
| 2026-05-07 01:19 | -22.90891 | -43.16560 | 26 ft | 16 kts | 357° |
| 2026-05-07 01:19 | -22.90777 | -43.16557 | 27 ft | 16 kts | 4° |
| 2026-05-07 01:19 | -22.90667 | -43.16557 | 27 ft | 8 kts | 357° |
| 2026-05-07 01:20 | -22.90622 | -43.16560 | 27 ft | 4 kts | 357° |
| 2026-05-07 01:20 | -22.90587 | -43.16561 | 27 ft | 5 kts | 358° |
| 2026-05-07 01:20 | -22.90543 | -43.16563 | 27 ft | 6 kts | 356° |
| 2026-05-07 01:20 | -22.90503 | -43.16546 | 27 ft | 6 kts | 68° |
| 2026-05-07 01:21 | -22.90497 | -43.16517 | 27 ft | 0 kts | 75° |
| 2026-05-07 01:22 | -22.90497 | -43.16516 | 27 ft | 0 kts | 75° |
| 2026-05-07 01:22 | -22.90496 | -43.16514 | 27 ft | 0 kts | 75° |
| 2026-05-07 01:22 | -22.90496 | -43.16513 | 27 ft | 0 kts | 75° |
| 2026-05-07 01:26 | -22.90494 | -43.16506 | 27 ft | 3 kts | 75° |
| 2026-05-07 01:26 | -22.90487 | -43.16458 | 27 ft | 9 kts | 85° |
| 2026-05-07 01:26 | -22.90482 | -43.16402 | 27 ft | 10 kts | 85° |
| 2026-05-07 01:26 | -22.90458 | -43.16338 | 28 ft | 3 kts | 92° |
| 2026-05-07 01:27 | -22.90470 | -43.16330 | 27 ft | 0 kts | 169° |
| 2026-05-07 01:27 | -22.90476 | -43.16329 | 27 ft | 0 kts | 174° |
| 2026-05-07 01:27 | -22.90478 | -43.16329 | 27 ft | 0 kts | 175° |
| 2026-05-07 01:27 | -22.90479 | -43.16329 | 27 ft | 0 kts | 175° |
| 2026-05-07 01:28 | -22.90499 | -43.16327 | 26 ft | 24 kts | 175° |
| 2026-05-07 01:28 | -22.90997 | -43.16292 | 25 ft | 115 kts | 176° |
| 2026-05-07 01:28 | -22.92019 | -43.16231 | 239 ft | 162 kts | 174° |
| 2026-05-07 01:29 | -22.93463 | -43.15768 | 1178 ft | 170 kts | 147° |
| 2026-05-07 01:29 | -22.94308 | -43.15039 | 1948 ft | 149 kts | 129° |
| 2026-05-07 01:29 | -22.94836 | -43.14167 | 2603 ft | 137 kts | 110° |
| 2026-05-07 01:29 | -22.95024 | -43.13544 | 3012 ft | 129 kts | 104° |
| 2026-05-07 01:30 | -22.95576 | -43.12497 | 3687 ft | 125 kts | 147° |
| 2026-05-07 01:30 | -22.96099 | -43.12141 | 3835 ft | 140 kts | 140° |
| 2026-05-07 01:30 | -22.97124 | -43.11230 | 4401 ft | 148 kts | 136° |
| 2026-05-07 01:30 | -22.97922 | -43.10467 | 4805 ft | 157 kts | 133° |
| 2026-05-07 01:31 | -22.98661 | -43.09656 | 5428 ft | 153 kts | 139° |
| 2026-05-07 01:31 | -22.99736 | -43.09280 | 5705 ft | 178 kts | 182° |
| 2026-05-07 01:31 | -23.00993 | -43.09715 | 5935 ft | 206 kts | 202° |
| 2026-05-07 01:31 | -23.01935 | -43.10152 | 6012 ft | 230 kts | 202° |
| 2026-05-07 01:32 | -23.03469 | -43.10902 | 6352 ft | 255 kts | 211° |
| 2026-05-07 01:32 | -23.05105 | -43.12912 | 7049 ft | 279 kts | 234° |
| 2026-05-07 01:32 | -23.06270 | -43.14668 | 7660 ft | 296 kts | 234° |
| 2026-05-07 01:32 | -23.07486 | -43.16501 | 8549 ft | 301 kts | 234° |
| 2026-05-07 01:33 | -23.08702 | -43.18335 | 9549 ft | 302 kts | 235° |
| 2026-05-07 01:33 | -23.09496 | -43.20401 | 10455 ft | 303 kts | 263° |
| 2026-05-07 01:33 | -23.09624 | -43.21915 | 11015 ft | 307 kts | 266° |
| 2026-05-07 01:33 | -23.09826 | -43.25053 | 11986 ft | 321 kts | 266° |
| 2026-05-07 01:34 | -23.10100 | -43.26685 | 12394 ft | 331 kts | 250° |
| 2026-05-07 01:34 | -23.11382 | -43.29744 | 13388 ft | 343 kts | 245° |
| 2026-05-07 01:34 | -23.12417 | -43.32097 | 14256 ft | 348 kts | 244° |
| 2026-05-07 01:34 | -23.13444 | -43.34472 | 15194 ft | 350 kts | 244° |
| 2026-05-07 01:35 | -23.14518 | -43.36829 | 16118 ft | 351 kts | 242° |
| 2026-05-07 01:35 | -23.15238 | -43.38414 | 16697 ft | 352 kts | 243° |
| 2026-05-07 01:35 | -23.16665 | -43.41583 | 17776 ft | 356 kts | 243° |
| 2026-05-07 01:35 | -23.17740 | -43.44007 | 18542 ft | 360 kts | 243° |
| 2026-05-07 01:36 | -23.18474 | -43.45649 | 19048 ft | 362 kts | 243° |
| 2026-05-07 01:36 | -23.19947 | -43.48931 | 20044 ft | 366 kts | 243° |
| 2026-05-07 01:36 | -23.20699 | -43.50589 | 20543 ft | 368 kts | 243° |
| 2026-05-07 01:36 | -23.21834 | -43.53097 | 21288 ft | 370 kts | 243° |
| 2026-05-07 01:37 | -23.22963 | -43.55582 | 21986 ft | 373 kts | 243° |
| 2026-05-07 01:37 | -23.24125 | -43.58125 | 22655 ft | 376 kts | 243° |
| 2026-05-07 01:37 | -23.25290 | -43.60665 | 23330 ft | 379 kts | 243° |
| 2026-05-07 01:37 | -23.26463 | -43.63249 | 24011 ft | 381 kts | 243° |
| 2026-05-07 01:38 | -23.28023 | -43.66723 | 24877 ft | 383 kts | 243° |
| 2026-05-07 01:38 | -23.28832 | -43.68541 | 25312 ft | 385 kts | 243° |
| 2026-05-07 01:38 | -23.30014 | -43.71220 | 25927 ft | 388 kts | 243° |
| 2026-05-07 01:38 | -23.31167 | -43.73877 | 26539 ft | 390 kts | 243° |
| 2026-05-07 01:39 | -23.32330 | -43.76575 | 27147 ft | 391 kts | 243° |
| 2026-05-07 01:39 | -23.33476 | -43.79252 | 27703 ft | 393 kts | 243° |
| 2026-05-07 01:39 | -23.34630 | -43.81967 | 28239 ft | 396 kts | 243° |
| 2026-05-07 01:39 | -23.35768 | -43.84671 | 28754 ft | 399 kts | 243° |
| 2026-05-07 01:40 | -23.37299 | -43.88327 | 29490 ft | 400 kts | 243° |
| 2026-05-07 01:40 | -23.38065 | -43.90173 | 29838 ft | 401 kts | 243° |
| 2026-05-07 01:40 | -23.39584 | -43.93895 | 30082 ft | 395 kts | 243° |
| 2026-05-07 01:40 | -23.40662 | -43.96562 | 30085 ft | 379 kts | 243° |
| 2026-05-07 01:41 | -23.41352 | -43.98277 | 30100 ft | 375 kts | 243° |
| 2026-05-07 01:41 | -23.43435 | -44.03473 | 30111 ft | 377 kts | 243° |
| 2026-05-07 01:42 | -23.45534 | -44.08734 | 30113 ft | 378 kts | 243° |
| 2026-05-07 01:42 | -23.47629 | -44.13987 | 30114 ft | 379 kts | 243° |
| 2026-05-07 01:43 | -23.49705 | -44.19217 | 30111 ft | 376 kts | 243° |
| 2026-05-07 01:43 | -23.51783 | -44.24471 | 30114 ft | 376 kts | 243° |
| 2026-05-07 01:44 | -23.54199 | -44.30584 | 30110 ft | 377 kts | 243° |
| 2026-05-07 01:44 | -23.55917 | -44.34948 | 30109 ft | 375 kts | 243° |
| 2026-05-07 01:45 | -23.57962 | -44.40177 | 30111 ft | 376 kts | 243° |
| 2026-05-07 01:45 | -23.60008 | -44.45405 | 30110 ft | 375 kts | 243° |
| 2026-05-07 01:46 | -23.62054 | -44.50646 | 30109 ft | 374 kts | 243° |
| 2026-05-07 01:46 | -23.64428 | -44.56739 | 30099 ft | 375 kts | 243° |
| 2026-05-07 01:47 | -23.66128 | -44.61099 | 30098 ft | 376 kts | 243° |
| 2026-05-07 01:47 | -23.68173 | -44.66361 | 30101 ft | 373 kts | 243° |
| 2026-05-07 01:48 | -23.70599 | -44.72638 | 30101 ft | 375 kts | 243° |
| 2026-05-07 01:48 | -23.72315 | -44.77070 | 30097 ft | 373 kts | 243° |
| 2026-05-07 01:49 | -23.74320 | -44.82278 | 30096 ft | 372 kts | 243° |
| 2026-05-07 01:49 | -23.76306 | -44.87427 | 30094 ft | 373 kts | 243° |
| 2026-05-07 01:50 | -23.78317 | -44.92640 | 30093 ft | 372 kts | 243° |
| 2026-05-07 01:50 | -23.80335 | -44.97877 | 30083 ft | 373 kts | 243° |
| 2026-05-07 01:51 | -23.82345 | -45.03092 | 30076 ft | 372 kts | 243° |
| 2026-05-07 01:51 | -23.84342 | -45.08279 | 30080 ft | 371 kts | 243° |
| 2026-05-07 01:52 | -23.86349 | -45.13495 | 30086 ft | 372 kts | 244° |
| 2026-05-07 01:52 | -23.87104 | -45.16214 | 30082 ft | 377 kts | 255° |
| 2026-05-07 01:52 | -23.87348 | -45.19074 | 30081 ft | 383 kts | 265° |
| 2026-05-07 01:53 | -23.86789 | -45.24954 | 30002 ft | 398 kts | 271° |
| 2026-05-07 01:53 | -23.86455 | -45.28020 | 29740 ft | 418 kts | 271° |
| 2026-05-07 01:53 | -23.86060 | -45.31224 | 29481 ft | 430 kts | 276° |
| 2026-05-07 01:53 | -23.85212 | -45.35462 | 29114 ft | 428 kts | 277° |
| 2026-05-07 01:54 | -23.84782 | -45.37587 | 28924 ft | 426 kts | 277° |
| 2026-05-07 01:54 | -23.84155 | -45.40698 | 28644 ft | 423 kts | 277° |
| 2026-05-07 01:54 | -23.83316 | -45.44868 | 28264 ft | 421 kts | 277° |
| 2026-05-07 01:54 | -23.82908 | -45.46920 | 28075 ft | 419 kts | 277° |
| 2026-05-07 01:55 | -23.82289 | -45.50045 | 27793 ft | 418 kts | 277° |
| 2026-05-07 01:55 | -23.81479 | -45.54198 | 27411 ft | 417 kts | 277° |
| 2026-05-07 01:55 | -23.81086 | -45.56232 | 27194 ft | 416 kts | 277° |
| 2026-05-07 01:55 | -23.80294 | -45.60325 | 26751 ft | 415 kts | 277° |
| 2026-05-07 01:56 | -23.79889 | -45.62406 | 26527 ft | 414 kts | 277° |
| 2026-05-07 01:56 | -23.79300 | -45.65436 | 26201 ft | 413 kts | 278° |
| 2026-05-07 01:56 | -23.78673 | -45.68655 | 25857 ft | 411 kts | 278° |
| 2026-05-07 01:56 | -23.78049 | -45.71862 | 25513 ft | 410 kts | 278° |
| 2026-05-07 01:57 | -23.77459 | -45.74886 | 25186 ft | 409 kts | 278° |
| 2026-05-07 01:57 | -23.76868 | -45.77916 | 24861 ft | 408 kts | 278° |
| 2026-05-07 01:57 | -23.76279 | -45.80930 | 24535 ft | 405 kts | 278° |
| 2026-05-07 01:57 | -23.75500 | -45.84912 | 24101 ft | 404 kts | 278° |
| 2026-05-07 01:58 | -23.75110 | -45.86945 | 23878 ft | 402 kts | 276° |
| 2026-05-07 01:58 | -23.75087 | -45.89925 | 23558 ft | 394 kts | 258° |
| 2026-05-07 01:58 | -23.75662 | -45.92829 | 23263 ft | 390 kts | 252° |
| 2026-05-07 01:58 | -23.76410 | -45.95673 | 22944 ft | 390 kts | 251° |
| 2026-05-07 01:59 | -23.77219 | -45.98513 | 22621 ft | 388 kts | 250° |
| 2026-05-07 01:59 | -23.78037 | -46.01311 | 22301 ft | 387 kts | 250° |
| 2026-05-07 01:59 | -23.78859 | -46.04096 | 21884 ft | 387 kts | 250° |
| 2026-05-07 01:59 | -23.79956 | -46.07811 | 21317 ft | 384 kts | 250° |
| 2026-05-07 02:00 | -23.80500 | -46.09652 | 21042 ft | 382 kts | 250° |
| 2026-05-07 02:00 | -23.81311 | -46.12395 | 20632 ft | 381 kts | 250° |
| 2026-05-07 02:00 | -23.82117 | -46.15127 | 20220 ft | 379 kts | 250° |
| 2026-05-07 02:00 | -23.82925 | -46.17868 | 19806 ft | 377 kts | 250° |
| 2026-05-07 02:01 | -23.83624 | -46.20612 | 19386 ft | 378 kts | 261° |
| 2026-05-07 02:01 | -23.83824 | -46.23532 | 19339 ft | 390 kts | 264° |
| 2026-05-07 02:01 | -23.84022 | -46.27499 | 19684 ft | 387 kts | 265° |
| 2026-05-07 02:01 | -23.84112 | -46.29391 | 19263 ft | 377 kts | 265° |
| 2026-05-07 02:02 | -23.84248 | -46.32233 | 18679 ft | 373 kts | 265° |
| 2026-05-07 02:02 | -23.84381 | -46.35057 | 18199 ft | 376 kts | 265° |
| 2026-05-07 02:02 | -23.84516 | -46.37932 | 17697 ft | 377 kts | 265° |
| 2026-05-07 02:02 | -23.84691 | -46.41702 | 16936 ft | 375 kts | 266° |
| 2026-05-07 02:03 | -23.84779 | -46.43605 | 16511 ft | 373 kts | 266° |
| 2026-05-07 02:03 | -23.84909 | -46.46402 | 15899 ft | 369 kts | 266° |
| 2026-05-07 02:03 | -23.85037 | -46.49194 | 15272 ft | 365 kts | 266° |
| 2026-05-07 02:03 | -23.85164 | -46.51942 | 14658 ft | 362 kts | 266° |
| 2026-05-07 02:04 | -23.85288 | -46.54669 | 14030 ft | 358 kts | 266° |
| 2026-05-07 02:04 | -23.85410 | -46.57350 | 13424 ft | 356 kts | 267° |
| 2026-05-07 02:04 | -23.85451 | -46.60053 | 12791 ft | 353 kts | 278° |
| 2026-05-07 02:04 | -23.84612 | -46.62524 | 12222 ft | 346 kts | 305° |
| 2026-05-07 02:05 | -23.82925 | -46.64347 | 11576 ft | 332 kts | 326° |
| 2026-05-07 02:05 | -23.81071 | -46.65715 | 10931 ft | 314 kts | 328° |
| 2026-05-07 02:05 | -23.79298 | -46.66978 | 10397 ft | 297 kts | 329° |
| 2026-05-07 02:05 | -23.77578 | -46.68185 | 9987 ft | 293 kts | 329° |
| 2026-05-07 02:06 | -23.75896 | -46.69357 | 9517 ft | 291 kts | 329° |
| 2026-05-07 02:06 | -23.74173 | -46.70555 | 9627 ft | 305 kts | 329° |
| 2026-05-07 02:06 | -23.72381 | -46.71800 | 9409 ft | 303 kts | 329° |
| 2026-05-07 02:06 | -23.70629 | -46.73017 | 9003 ft | 288 kts | 329° |
| 2026-05-07 02:07 | -23.68982 | -46.74159 | 8645 ft | 273 kts | 329° |
| 2026-05-07 02:07 | -23.65887 | -46.76303 | 7984 ft | 257 kts | 329° |
| 2026-05-07 02:07 | -23.64360 | -46.77362 | 7786 ft | 259 kts | 329° |
| 2026-05-07 02:08 | -23.62796 | -46.78445 | 7902 ft | 274 kts | 329° |
| 2026-05-07 02:08 | -23.61167 | -46.79573 | 7632 ft | 271 kts | 329° |
| 2026-05-07 02:08 | -23.59609 | -46.80653 | 7307 ft | 258 kts | 329° |
| 2026-05-07 02:08 | -23.58068 | -46.81502 | 7023 ft | 241 kts | 353° |
| 2026-05-07 02:09 | -23.56488 | -46.81253 | 6794 ft | 225 kts | 31° |
| 2026-05-07 02:09 | -23.55374 | -46.80140 | 6574 ft | 211 kts | 50° |
| 2026-05-07 02:09 | -23.54487 | -46.78926 | 6306 ft | 201 kts | 53° |
| 2026-05-07 02:09 | -23.53675 | -46.77712 | 5998 ft | 198 kts | 54° |
| 2026-05-07 02:10 | -23.52900 | -46.76489 | 5615 ft | 194 kts | 56° |
| 2026-05-07 02:10 | -23.52166 | -46.75293 | 5186 ft | 185 kts | 57° |
| 2026-05-07 02:10 | -23.51883 | -46.73999 | 4747 ft | 180 kts | 100° |
| 2026-05-07 02:10 | -23.52512 | -46.72852 | 4358 ft | 175 kts | 131° |
| 2026-05-07 02:11 | -23.53395 | -46.72025 | 4206 ft | 159 kts | 145° |
| 2026-05-07 02:11 | -23.54316 | -46.71389 | 4069 ft | 157 kts | 145° |
| 2026-05-07 02:11 | -23.55232 | -46.70758 | 3887 ft | 148 kts | 145° |
| 2026-05-07 02:11 | -23.56059 | -46.70189 | 3676 ft | 135 kts | 145° |
| 2026-05-07 02:12 | -23.56825 | -46.69662 | 3666 ft | 127 kts | 145° |
| 2026-05-07 02:12 | -23.57597 | -46.69130 | 3585 ft | 133 kts | 145° |
| 2026-05-07 02:12 | -23.58640 | -46.68412 | 3375 ft | 134 kts | 146° |
| 2026-05-07 02:12 | -23.59167 | -46.68050 | 3262 ft | 134 kts | 146° |
| 2026-05-07 02:13 | -23.59956 | -46.67508 | 3092 ft | 132 kts | 146° |
| 2026-05-07 02:13 | -23.60733 | -46.66972 | 2929 ft | 131 kts | 146° |
| 2026-05-07 02:13 | -23.61510 | -46.66427 | 2766 ft | 131 kts | 146° |
| 2026-05-07 02:13 | -23.62288 | -46.65898 | 2609 ft | 132 kts | 147° |
| 2026-05-07 02:14 | -23.62852 | -46.65511 | 2619 ft | 55 kts | 146° |
| 2026-05-07 02:14 | -23.63094 | -46.65349 | 2623 ft | 15 kts | 167° |
| 2026-05-07 02:14 | -23.63192 | -46.65393 | 2623 ft | 8 kts | 245° |
| 2026-05-07 02:14 | -23.63161 | -46.65448 | 2623 ft | 10 kts | 327° |
| 2026-05-07 02:15 | -23.63118 | -46.65478 | 2622 ft | 11 kts | 327° |
| 2026-05-07 02:15 | -23.63039 | -46.65515 | 2621 ft | 13 kts | 349° |
| 2026-05-07 02:15 | -23.62949 | -46.65555 | 2619 ft | 15 kts | 325° |
| 2026-05-07 02:15 | -23.62854 | -46.65622 | 2618 ft | 17 kts | 327° |
| 2026-05-07 02:16 | -23.62814 | -46.65657 | 2617 ft | 2 kts | 268° |
| 2026-05-07 02:16 | -23.62824 | -46.65678 | 2617 ft | 4 kts | 238° |
| 2026-05-07 02:16 | -23.62833 | -46.65694 | 2617 ft | 0 kts | 237° |
| 2026-05-07 02:16 | -23.62838 | -46.65703 | 2617 ft | 2 kts | 237° |
| 2026-05-07 02:17 | -23.62852 | -46.65726 | 2616 ft | 2 kts | 236° |
| 2026-05-07 02:17 | -23.62853 | -46.65728 | 2616 ft | 1 kts | 236° |
| 2026-05-07 02:17 | -23.62856 | -46.65733 | 2616 ft | 0 kts | 236° |